Language selection

Features

My Weather Profile Weather Topics  | 

Atlantic - Newfoundland: Past 24 Hour Conditions

 

East Chedabucto Bay - 44488

01:00 PM ADT 22 April 2021Buoy position: 45.45N 60.95W
Disclaimer

This table is a summary of hourly weather conditions for the past 24 hours.
Please note that these observations might not always be representative of weather conditions over their associated marine area.

Date / Time
(ADT)
Wind(knots) Wave height(m) Wave period(s) Pressure(kPa) Air tempC) Water tempC)
22 April 2021
13:00 SW 17 gust 19 2.0 6.6 99.3 6 3
12:00 S 19 gust 24 2.0 6.9 99.3 6 3
11:00 SSE 15 gust 18 1.7 6.1 99.4 5 3
10:00 SSE 20 gust 23 1.9 5.8 99.4 6 3
9:00 SE 22 gust 27 1.4 5.0 99.5 7 3
8:00 ESE 19 gust 23 1.0 4.3 99.6 6 3
7:00 ESE 18 gust 23 0.9 4.3 99.8 6 3
6:00 E 11 gust 13 0.7 4.4 100.0 5 3
5:00 SE 11 gust 13 0.8 3.9 100.1 5 3
4:00 SE 16 gust 18 0.8 3.7 100.3 6 3
3:00 SE 14 gust 16 0.6 3.6 100.4 6 3
2:00 SE 14 gust 16 0.6 3.7 100.5 6 3
1:00 ESE 5 gust 8 0.3 4.5 100.7 6 3
0:00 E 5 gust 8 0.3 7.9 100.9 6 3
21 April 2021
23:00 E 7 gust 9 0.3 8.1 101.0 4 3
22:00 SE 6 gust 6 0.3 6.4 101.1 4 3
21:00 SSE 13 gust 15 0.3 4.4 101.1 5 3
20:00 SSE 13 gust 15 0.4 3.6 101.1 5 3
19:00 SSE 13 gust 16 0.5 3.5 101.1 6 3
18:00 SSE 13 gust 15 0.6 3.3 101.1 5 3
17:00 S 12 gust 16 0.6 3.8 101.2 6 3
16:00 SSW 9 gust 12 0.5 4.4 101.2 8 3
15:00 SW 13 gust 15 0.5 4.1 101.3 9 3
14:00 SSW 13 gust 15 0.4 4.0 101.3 8 3
13:00 S 12 gust 15 0.3 8.9 101.3 8 4

Zoom-in to make a selection

Map of Atlantic - Newfoundland marine weather areas Banquereau - 44139 East Chedabucto Bay - 44488 West Chedabucto Bay - 44489 Blanc-Sablon Airport Cap Whittle Chevery Natashquan Airport Heath Point Îles de la Madeleine Airport Miscou Island Eskasoni (First Nations) Grand Étang Ingonish Beach North Mountain St.Paul Island J.A. Douglas McCurdy Sydney Airport Charlottetown Airport East Point North Cape Argentia Bonavista Burgeo Cape Race Corner Brook Daniel's Harbour Englee Ferolle Point La Scie Port aux Basques Rocky Harbour Sagona Island St. Anthony Airport St. John's Int'l Airport St. Lawrence Stephenville Airport Twillingate Winterland Branch Hill Wreckhouse Grates Cove Pool's Island Marticot Island Long Pond Cartwright Airport Mary's Harbour
Legend:
buoy Buoy
land station Land Station

Atlantic - Newfoundland Area

Another Region

What we are doing

Date modified: